Airfield :
LOGIN :

Register | Disclaimer

   EN    FR    IT 

 










Legend :    VFR   Marginal VFR   IFR   Intensive IFR   Very Intensive IFR
Visi :
Ceiling :
>= 8 km
>= 3000ft
5 to 8 km
1000 to 3000 ft
1500m to 5 km
500 to 1000 ft
800 to 1500m
200 to 500 ft
< 800m
< 200 ft
Symbols :   Thunderstorms  Fog  Heavy snow  Heavy precipitations  Wind > 20 kt
SIGMETs :     Misc.  Thunderstorms  Icing  Turbulence  Mountain Waves  Volcanic Ashes







- Airport Elevation : 83 ft
- IATA code : LHR
- Download approach charts


EGLL - London Heathrow

CURRENT METAR :
  • 192250Z AUTO 25005KT 9999 -RA FEW044 16/15 Q1009 NOSIG

EXPIRED METARs :
  • 192220Z AUTO 24007KT 9999 -RA FEW030 BKN044 16/15 Q1009
  • 192150Z AUTO 25008KT 9999 BKN048 17/15 Q1009 NOSIG
  • 192120Z AUTO 25007KT 9999 OVC047 17/14 Q1009 NOSIG
  • 192050Z AUTO 27006KT 9999 BKN038 BKN048 17/14 Q1009 NOSIG
  • 192020Z AUTO 27007KT 9999 BKN039 17/15 Q1009 NOSIG
  • 191950Z AUTO 26008KT 9999 FEW030/// BKN043/// //////TCU 17/15 Q1008 NOSIG

TAF TAF EGLL
Valid from the 19 at 18:00 until the 21 at 00:00 UTC


191654Z 1918/2024 27006KT 9999 SCT025
PROB30
TEMPO 1918/1920 6000 SHRA
PROB30
TEMPO 2011/2018 6000 SHRA
No reported NOTAMs for that airfield.



MET'MAP, your aeronautical weather chart ! - Copyright ORBIFLY December 2007 - Disclaimer

ORBIFLY MET'MAP TEAM :

Programming & Development : Alexandra Zaïnal
Concept & Development : Baudouin d'Aumeries
Co-Development & Prog : Marc-Olivier Méhu
Technical & hardware support : Manuel Goepfert

Contact : metmap@orbifly.com




SOURCES & CREDITS :

   NOAA